Time;durP1;ratioP1;P1;durP2;ratioP2;P2;SDS_P1;SDS_P2;PMS_P1;PMS_P2;Temp;Humidity;BMP_temperature;BMP_pressure;BME280_temperature;BME280_humidity;BME280_pressure;Samples;Min_cycle;Max_cycle;Signal;HPM_P1;HPM_P2
2021/12/18 00:35:05;;;;;;;27.48;7.00;;;;;;;;;;6205547;23;20043;-84
2021/12/18 00:37:31;;;;;;;15.65;4.97;;;;;;;;;;6180016;23;20099;-85
2021/12/18 00:39:59;;;;;;;11.60;4.20;;;;;;;;;;6179908;23;20451;-84
2021/12/18 00:45:01;;;;;;;11.95;3.97;;;;;;;;;;6154596;23;20028;-84
2021/12/18 00:47:27;;;;;;;13.63;4.15;;;;;;;;;;6179428;23;20016;-84
2021/12/18 00:49:53;;;;;;;12.98;4.20;;;;;;;;;;6180984;23;20021;-83
2021/12/18 00:52:19;;;;;;;10.60;2.92;;;;;;;;;;6179412;23;20528;-83
2021/12/18 00:54:45;;;;;;;10.77;3.10;;;;;;;;;;6179424;23;20017;-84
2021/12/18 00:57:12;;;;;;;8.32;2.55;;;;;;;;;;6179485;23;20341;-84
2021/12/18 00:59:37;;;;;;;10.80;2.67;;;;;;;;;;6179757;23;20179;-84
2021/12/18 01:02:04;;;;;;;9.82;2.70;;;;;;;;;;6179416;23;20017;-83
2021/12/18 01:04:30;;;;;;;10.23;2.58;;;;;;;;;;6179301;23;20019;-83
2021/12/18 01:06:56;;;;;;;8.57;2.55;;;;;;;;;;6178979;23;20042;-83
2021/12/18 01:09:34;;;;;;;13.50;3.08;;;;;;;;;;6179251;23;20017;-83
2021/12/18 01:12:00;;;;;;;8.27;1.95;;;;;;;;;;6154265;23;20084;-83
2021/12/18 01:24:57;;;;;;;9.25;2.42;;;;;;;;;;6154343;23;20017;-83
2021/12/18 01:27:23;;;;;;;10.18;2.97;;;;;;;;;;6154201;23;20061;-83
2021/12/18 01:29:49;;;;;;;8.70;2.60;;;;;;;;;;6179069;23;20016;-83
2021/12/18 01:32:15;;;;;;;9.93;2.70;;;;;;;;;;6154153;23;20020;-84
2021/12/18 01:34:41;;;;;;;10.90;2.13;;;;;;;;;;6154310;23;20009;-83
2021/12/18 01:37:07;;;;;;;9.50;2.40;;;;;;;;;;6205116;23;20099;-83
2021/12/18 01:39:33;;;;;;;8.35;2.38;;;;;;;;;;6208997;23;20017;-83
2021/12/18 01:42:34;;;;;;;13.95;3.08;;;;;;;;;;6184021;23;20016;-84
2021/12/18 01:52:45;;;;;;;14.55;3.13;;;;;;;;;;6208977;23;20013;-83
2021/12/18 01:55:12;;;;;;;10.95;2.92;;;;;;;;;;6183927;23;20454;-84
2021/12/18 01:57:38;;;;;;;9.30;2.63;;;;;;;;;;6208828;23;20358;-83
2021/12/18 02:00:15;;;;;;;12.18;2.70;;;;;;;;;;6208766;23;20013;-83
2021/12/18 02:02:41;;;;;;;12.50;2.83;;;;;;;;;;6208918;23;20450;-84
2021/12/18 02:05:07;;;;;;;10.35;2.88;;;;;;;;;;6208649;23;20048;-84
2021/12/18 02:07:33;;;;;;;12.68;3.10;;;;;;;;;;6183705;23;20017;-83
2021/12/18 02:10:06;;;;;;;12.00;3.22;;;;;;;;;;6208808;23;20465;-83
2021/12/18 02:12:43;;;;;;;11.70;3.22;;;;;;;;;;6208912;23;20008;-83
2021/12/18 02:20:45;;;;;;;10.13;3.42;;;;;;;;;;6208499;23;19947;-83
2021/12/18 02:23:11;;;;;;;13.82;4.50;;;;;;;;;;6208621;23;20350;-83
2021/12/18 02:25:38;;;;;;;14.00;4.13;;;;;;;;;;6206077;23;20016;-83
2021/12/18 02:28:14;;;;;;;17.77;4.40;;;;;;;;;;6208891;23;20100;-82
2021/12/18 02:30:40;;;;;;;13.27;4.53;;;;;;;;;;6208505;23;20016;-83
2021/12/18 02:33:06;;;;;;;17.70;4.68;;;;;;;;;;6208417;23;20015;-82
2021/12/18 02:35:40;;;;;;;15.98;4.68;;;;;;;;;;6208394;23;20409;-82
2021/12/18 02:38:11;;;;;;;15.98;4.70;;;;;;;;;;6208600;23;20094;-83
2021/12/18 02:40:56;;;;;;;10.90;3.55;;;;;;;;;;6208472;23;20468;-84
2021/12/18 02:43:26;;;;;;;15.27;4.00;;;;;;;;;;6208675;23;20087;-82
2021/12/18 02:45:55;;;;;;;16.98;5.13;;;;;;;;;;6208249;23;20016;-84
2021/12/18 02:48:22;;;;;;;18.27;5.07;;;;;;;;;;6208474;23;20112;-83
2021/12/18 02:50:48;;;;;;;16.23;4.85;;;;;;;;;;6208198;23;20020;-83
2021/12/18 02:53:14;;;;;;;23.75;5.53;;;;;;;;;;6208093;23;20013;-83
2021/12/18 02:55:40;;;;;;;15.43;4.47;;;;;;;;;;6208343;23;20019;-83
2021/12/18 02:58:06;;;;;;;15.68;5.07;;;;;;;;;;6208180;23;20016;-83
2021/12/18 03:00:33;;;;;;;16.92;4.82;;;;;;;;;;6208194;23;20405;-83
2021/12/18 03:03:04;;;;;;;21.60;5.40;;;;;;;;;;6208311;23;20462;-83
2021/12/18 03:05:37;;;;;;;14.48;3.78;;;;;;;;;;6208176;23;20018;-82
2021/12/18 03:08:11;;;;;;;14.90;4.55;;;;;;;;;;6183254;23;20015;-83
2021/12/18 03:22:31;;;;;;;18.13;4.05;;;;;;;;;;6208237;23;20020;-82
2021/12/18 03:25:19;;;;;;;13.25;3.60;;;;;;;;;;6207762;23;20024;-82
2021/12/18 03:27:21;;;;;;;14.93;4.60;;;;;;;;;;6191960;23;20394;-81
2021/12/18 03:29:47;;;;;;;12.57;3.90;;;;;;;;;;6208136;23;20104;-82
2021/12/18 03:32:13;;;;;;;14.57;3.75;;;;;;;;;;6208000;23;20011;-82
2021/12/18 03:34:39;;;;;;;18.63;4.95;;;;;;;;;;6208068;23;20092;-82
2021/12/18 03:37:05;;;;;;;17.92;4.07;;;;;;;;;;6207756;23;20481;-82
2021/12/18 03:39:32;;;;;;;16.48;3.90;;;;;;;;;;6208069;23;20017;-82
2021/12/18 03:41:58;;;;;;;13.77;3.63;;;;;;;;;;6208366;23;20383;-81
2021/12/18 03:44:24;;;;;;;17.88;4.18;;;;;;;;;;6207939;23;20028;-81
2021/12/18 03:46:50;;;;;;;12.35;3.50;;;;;;;;;;6207762;23;20015;-81
2021/12/18 03:49:17;;;;;;;12.27;2.90;;;;;;;;;;6182980;23;20342;-81
2021/12/18 03:51:42;;;;;;;11.75;2.80;;;;;;;;;;6207958;23;20013;-81
2021/12/18 03:54:09;;;;;;;11.70;3.08;;;;;;;;;;6207900;23;20136;-82
2021/12/18 03:56:35;;;;;;;10.68;2.83;;;;;;;;;;6209640;23;20492;-82
2021/12/18 03:59:01;;;;;;;12.30;3.60;;;;;;;;;;6207853;23;20112;-82
2021/12/18 04:01:27;;;;;;;12.73;2.92;;;;;;;;;;6182958;23;20048;-81
2021/12/18 04:03:53;;;;;;;12.38;3.35;;;;;;;;;;6182854;23;20016;-81
2021/12/18 04:06:19;;;;;;;9.43;2.53;;;;;;;;;;6207780;23;20020;-81
2021/12/18 04:08:45;;;;;;;9.82;3.22;;;;;;;;;;6207653;23;20027;-81
2021/12/18 04:11:11;;;;;;;13.30;3.70;;;;;;;;;;6207893;23;20132;-81
2021/12/18 04:13:43;;;;;;;10.95;3.00;;;;;;;;;;6209785;23;20265;-81
2021/12/18 04:16:09;;;;;;;14.32;3.63;;;;;;;;;;6209854;23;20019;-81
2021/12/18 04:18:35;;;;;;;12.57;3.97;;;;;;;;;;6184851;23;20506;-81
2021/12/18 04:21:00;;;;;;;16.33;4.15;;;;;;;;;;6209742;23;20039;-81
2021/12/18 04:23:26;;;;;;;12.98;3.78;;;;;;;;;;6209872;23;20016;-81
2021/12/18 04:25:54;;;;;;;12.00;3.58;;;;;;;;;;6207631;23;20018;-81
2021/12/18 04:28:20;;;;;;;18.85;4.22;;;;;;;;;;6209745;23;20012;-81
2021/12/18 04:30:46;;;;;;;15.48;3.85;;;;;;;;;;6209592;23;20427;-81
2021/12/18 04:33:12;;;;;;;10.02;2.92;;;;;;;;;;6209570;23;20013;-82
2021/12/18 04:35:38;;;;;;;12.55;3.05;;;;;;;;;;6209418;23;20024;-81
2021/12/18 04:38:05;;;;;;;11.02;3.05;;;;;;;;;;6209532;23;20079;-81
2021/12/18 04:40:30;;;;;;;10.50;2.72;;;;;;;;;;6209532;23;20091;-81
2021/12/18 04:42:58;;;;;;;6.63;2.15;;;;;;;;;;6185001;23;20031;-81
2021/12/18 04:45:24;;;;;;;12.43;3.17;;;;;;;;;;6209343;23;20020;-81
2021/12/18 04:47:50;;;;;;;8.25;2.47;;;;;;;;;;6184533;23;20015;-81
2021/12/18 04:50:16;;;;;;;9.63;2.50;;;;;;;;;;6209466;23;20019;-81
2021/12/18 04:52:42;;;;;;;10.30;2.40;;;;;;;;;;6209441;23;20053;-81
2021/12/18 04:55:09;;;;;;;9.05;2.33;;;;;;;;;;6184478;23;20017;-81
2021/12/18 04:57:35;;;;;;;6.68;1.92;;;;;;;;;;6184379;23;20056;-81
2021/12/18 05:00:01;;;;;;;6.90;2.08;;;;;;;;;;6209282;23;20458;-80
2021/12/18 05:02:36;;;;;;;8.15;1.98;;;;;;;;;;6209355;23;20028;-80
2021/12/18 05:05:03;;;;;;;7.70;2.10;;;;;;;;;;6209129;23;20023;-80
2021/12/18 05:07:29;;;;;;;11.27;2.55;;;;;;;;;;6209432;23;20347;-80
2021/12/18 05:09:55;;;;;;;8.32;2.03;;;;;;;;;;6209267;23;20013;-80
2021/12/18 05:12:21;;;;;;;11.20;2.65;;;;;;;;;;6208912;23;20413;-80
2021/12/18 05:14:47;;;;;;;9.48;2.30;;;;;;;;;;6208681;23;20035;-80
2021/12/18 05:17:13;;;;;;;7.78;2.17;;;;;;;;;;6209042;23;20005;-80
2021/12/18 05:19:39;;;;;;;9.30;2.80;;;;;;;;;;6209148;23;20047;-80
2021/12/18 05:22:05;;;;;;;6.50;2.47;;;;;;;;;;6208551;23;20040;-80
2021/12/18 05:24:31;;;;;;;12.05;2.63;;;;;;;;;;6209229;23;20092;-80
2021/12/18 05:26:58;;;;;;;12.50;3.45;;;;;;;;;;6184010;23;20016;-80
2021/12/18 05:29:24;;;;;;;10.63;2.97;;;;;;;;;;6208698;23;20024;-80
2021/12/18 05:31:50;;;;;;;9.38;2.63;;;;;;;;;;6183424;23;20020;-80
2021/12/18 05:34:24;;;;;;;12.82;3.42;;;;;;;;;;6183735;23;20013;-80
2021/12/18 05:37:16;;;;;;;10.18;3.53;;;;;;;;;;6208458;23;20051;-80
2021/12/18 05:39:37;;;;;;;8.73;3.08;;;;;;;;;;6207785;23;20021;-80
2021/12/18 05:42:03;;;;;;;9.85;3.33;;;;;;;;;;6208688;23;20055;-80
2021/12/18 05:44:29;;;;;;;17.10;4.38;;;;;;;;;;6183623;23;20287;-80
2021/12/18 05:46:55;;;;;;;9.90;3.65;;;;;;;;;;6208593;23;20051;-81
2021/12/18 05:49:22;;;;;;;12.13;3.70;;;;;;;;;;6208463;23;20008;-80
2021/12/18 05:51:48;;;;;;;11.68;3.70;;;;;;;;;;6208643;23;20051;-80
2021/12/18 05:54:14;;;;;;;13.20;4.10;;;;;;;;;;6208813;23;20082;-80
2021/12/18 05:56:40;;;;;;;13.05;4.75;;;;;;;;;;6208878;23;20479;-80
2021/12/18 05:59:06;;;;;;;15.52;4.25;;;;;;;;;;6208814;23;20276;-80
2021/12/18 06:01:32;;;;;;;15.45;3.97;;;;;;;;;;6208803;23;20012;-80
2021/12/18 06:03:58;;;;;;;11.43;4.15;;;;;;;;;;6208726;23;20030;-80
2021/12/18 06:06:25;;;;;;;13.30;4.38;;;;;;;;;;6208413;23;20031;-81
2021/12/18 06:08:51;;;;;;;19.65;4.70;;;;;;;;;;6208943;23;20020;-81
2021/12/18 06:11:20;;;;;;;22.98;5.63;;;;;;;;;;6208487;23;20016;-81
2021/12/18 06:13:48;;;;;;;17.52;5.40;;;;;;;;;;6208711;23;20012;-81
2021/12/18 06:16:14;;;;;;;19.27;5.72;;;;;;;;;;6208571;23;20018;-80
2021/12/18 06:18:42;;;;;;;23.73;6.45;;;;;;;;;;6208592;23;20021;-80
2021/12/18 06:21:09;;;;;;;17.50;5.10;;;;;;;;;;6208400;23;20083;-80
2021/12/18 06:23:35;;;;;;;31.27;7.20;;;;;;;;;;6208311;23;20020;-80
2021/12/18 06:26:01;;;;;;;42.35;8.07;;;;;;;;;;6206580;23;20021;-80
2021/12/18 06:28:27;;;;;;;19.23;5.53;;;;;;;;;;6207050;23;20021;-80
2021/12/18 06:30:53;;;;;;;19.50;6.00;;;;;;;;;;6208269;23;20013;-80
2021/12/18 06:33:20;;;;;;;21.88;5.70;;;;;;;;;;6208124;23;20061;-80
2021/12/18 06:35:46;;;;;;;20.23;6.38;;;;;;;;;;6182914;23;20071;-80
2021/12/18 06:38:12;;;;;;;20.15;6.55;;;;;;;;;;6183169;23;20020;-80
2021/12/18 06:40:38;;;;;;;26.52;6.75;;;;;;;;;;6208262;23;20342;-80
2021/12/18 06:43:04;;;;;;;22.58;6.88;;;;;;;;;;6208611;23;20634;-80
2021/12/18 06:45:30;;;;;;;23.05;6.35;;;;;;;;;;6208348;23;20016;-80
2021/12/18 06:47:56;;;;;;;22.00;6.53;;;;;;;;;;6208142;23;20096;-80
2021/12/18 06:50:23;;;;;;;25.20;6.78;;;;;;;;;;6208303;23;20012;-80
2021/12/18 06:52:49;;;;;;;20.10;7.60;;;;;;;;;;6183022;23;20075;-80
2021/12/18 06:55:15;;;;;;;25.08;7.72;;;;;;;;;;6183232;23;20020;-80
2021/12/18 06:57:41;;;;;;;20.15;7.05;;;;;;;;;;6208429;23;20070;-80
2021/12/18 07:00:09;;;;;;;22.98;6.53;;;;;;;;;;6208009;23;20020;-80
2021/12/18 07:02:35;;;;;;;19.30;5.88;;;;;;;;;;6208160;23;20020;-80
2021/12/18 07:05:01;;;;;;;24.38;7.53;;;;;;;;;;6208378;23;20092;-81
2021/12/18 07:07:27;;;;;;;23.00;8.27;;;;;;;;;;6208503;23;20423;-80
2021/12/18 07:09:53;;;;;;;20.67;8.18;;;;;;;;;;6208079;23;20015;-80
2021/12/18 07:12:19;;;;;;;22.40;6.47;;;;;;;;;;6208214;23;20354;-80
2021/12/18 07:14:45;;;;;;;41.30;8.57;;;;;;;;;;6208104;23;20095;-81
2021/12/18 07:17:11;;;;;;;42.58;8.43;;;;;;;;;;6208169;23;20469;-81
2021/12/18 07:19:37;;;;;;;22.83;6.13;;;;;;;;;;6208017;23;20020;-80
2021/12/18 07:22:04;;;;;;;23.50;7.25;;;;;;;;;;6207670;23;20012;-81
2021/12/18 07:24:30;;;;;;;22.35;7.70;;;;;;;;;;6207947;23;20534;-81
2021/12/18 07:26:56;;;;;;;25.25;8.73;;;;;;;;;;6207808;23;20047;-81
2021/12/18 07:29:22;;;;;;;23.98;8.65;;;;;;;;;;6183038;23;20040;-81
2021/12/18 07:31:48;;;;;;;32.15;9.43;;;;;;;;;;6207929;23;20020;-81
2021/12/18 07:34:14;;;;;;;22.58;8.45;;;;;;;;;;6208216;23;20017;-81
2021/12/18 07:36:40;;;;;;;23.70;8.20;;;;;;;;;;6207797;23;20028;-81
2021/12/18 07:39:06;;;;;;;27.13;8.55;;;;;;;;;;6182578;23;20031;-81
2021/12/18 07:41:32;;;;;;;28.73;9.40;;;;;;;;;;6207663;23;20017;-81
2021/12/18 07:43:58;;;;;;;31.25;9.70;;;;;;;;;;6207511;23;20012;-81
2021/12/18 07:46:25;;;;;;;26.52;9.13;;;;;;;;;;6208711;23;20119;-81
2021/12/18 07:48:50;;;;;;;29.23;9.40;;;;;;;;;;6209789;23;20407;-81
2021/12/18 07:51:17;;;;;;;44.13;10.35;;;;;;;;;;6184940;23;20087;-80
2021/12/18 07:53:43;;;;;;;22.65;7.82;;;;;;;;;;6209732;23;20017;-82
2021/12/18 07:56:11;;;;;;;23.45;8.30;;;;;;;;;;6210084;23;20438;-81
2021/12/18 07:58:39;;;;;;;27.38;8.70;;;;;;;;;;6212335;23;20021;-82
2021/12/18 08:01:05;;;;;;;26.52;8.18;;;;;;;;;;6212307;23;20017;-82
2021/12/18 08:03:32;;;;;;;18.75;7.15;;;;;;;;;;6210456;23;20067;-81
2021/12/18 08:05:58;;;;;;;20.85;7.28;;;;;;;;;;6209682;23;20342;-81
2021/12/18 08:08:24;;;;;;;16.13;5.50;;;;;;;;;;6209360;23;20017;-82
2021/12/18 08:10:50;;;;;;;19.75;6.47;;;;;;;;;;6210330;23;20009;-83
2021/12/18 08:13:16;;;;;;;17.55;6.13;;;;;;;;;;6211885;23;20034;-82
2021/12/18 08:15:42;;;;;;;18.67;6.90;;;;;;;;;;6211026;23;20095;-82
2021/12/18 08:18:08;;;;;;;14.95;5.88;;;;;;;;;;6209191;23;20091;-82
2021/12/18 08:20:35;;;;;;;17.38;5.60;;;;;;;;;;6209335;23;20488;-82
2021/12/18 08:23:01;;;;;;;16.17;6.15;;;;;;;;;;6209517;23;20021;-81
2021/12/18 08:25:30;;;;;;;17.40;6.22;;;;;;;;;;6183903;23;20031;-81
2021/12/18 08:27:59;;;;;;;27.02;6.50;;;;;;;;;;6209263;23;20114;-82
2021/12/18 08:30:26;;;;;;;18.85;6.43;;;;;;;;;;6184033;23;20020;-82
2021/12/18 08:32:52;;;;;;;17.13;5.72;;;;;;;;;;6209100;23;20021;-82
2021/12/18 08:35:18;;;;;;;15.57;5.22;;;;;;;;;;6209174;23;20516;-81
2021/12/18 08:37:44;;;;;;;15.45;5.38;;;;;;;;;;6209339;23;20079;-82
2021/12/18 08:40:11;;;;;;;18.75;5.53;;;;;;;;;;6209105;23;20055;-82
2021/12/18 08:42:37;;;;;;;17.23;5.85;;;;;;;;;;6184144;23;20020;-81
2021/12/18 08:45:03;;;;;;;16.15;5.28;;;;;;;;;;6209007;23;20023;-82
2021/12/18 08:47:29;;;;;;;18.30;6.22;;;;;;;;;;6209067;23;20012;-82
2021/12/18 08:49:55;;;;;;;20.52;6.47;;;;;;;;;;6183870;23;20070;-82
2021/12/18 08:52:21;;;;;;;18.20;5.78;;;;;;;;;;6209088;23;20018;-83
2021/12/18 08:54:48;;;;;;;12.90;5.32;;;;;;;;;;6208974;23;20393;-82
2021/12/18 08:57:14;;;;;;;14.85;4.78;;;;;;;;;;6182724;23;20348;-83
2021/12/18 08:59:40;;;;;;;10.85;3.80;;;;;;;;;;6208933;23;20015;-83
2021/12/18 09:02:07;;;;;;;10.77;3.85;;;;;;;;;;6183770;23;20009;-83
2021/12/18 09:04:33;;;;;;;11.80;4.22;;;;;;;;;;6209333;23;20119;-84
2021/12/18 09:06:59;;;;;;;12.27;4.07;;;;;;;;;;6209097;23;20055;-83
2021/12/18 09:09:25;;;;;;;10.45;3.60;;;;;;;;;;6208860;23;20510;-82
2021/12/18 09:11:51;;;;;;;12.82;4.25;;;;;;;;;;6208679;23;20047;-82
2021/12/18 09:14:17;;;;;;;12.23;4.03;;;;;;;;;;6209107;23;20229;-82
2021/12/18 09:16:43;;;;;;;11.00;3.35;;;;;;;;;;6208782;23;20347;-85
2021/12/18 09:19:09;;;;;;;12.88;3.95;;;;;;;;;;6183769;23;20446;-83
2021/12/18 09:21:35;;;;;;;12.07;3.17;;;;;;;;;;6208942;23;20036;-84
2021/12/18 09:24:01;;;;;;;10.45;3.17;;;;;;;;;;6208504;23;20016;-83
2021/12/18 09:26:27;;;;;;;12.25;3.50;;;;;;;;;;6208909;23;20411;-84
2021/12/18 09:28:53;;;;;;;11.23;3.50;;;;;;;;;;6208561;23;20051;-83
2021/12/18 09:31:19;;;;;;;14.25;3.42;;;;;;;;;;6208451;23;20370;-83
2021/12/18 09:33:45;;;;;;;10.82;4.00;;;;;;;;;;6182894;23;20071;-82
2021/12/18 09:36:11;;;;;;;13.07;3.83;;;;;;;;;;6208356;23;20028;-83
2021/12/18 09:38:37;;;;;;;16.35;3.90;;;;;;;;;;6208131;23;20017;-83
2021/12/18 09:41:06;;;;;;;12.05;4.65;;;;;;;;;;6208203;23;20351;-82
2021/12/18 09:43:32;;;;;;;12.40;4.22;;;;;;;;;;6208004;23;20233;-83
2021/12/18 09:46:09;;;;;;;10.07;4.00;;;;;;;;;;6207949;23;20017;-83
2021/12/18 09:48:36;;;;;;;12.18;3.28;;;;;;;;;;6208185;23;20345;-83
2021/12/18 09:51:06;;;;;;;12.32;3.92;;;;;;;;;;6208522;23;20013;-83
2021/12/18 09:53:32;;;;;;;12.48;3.65;;;;;;;;;;6208491;23;20019;-83
2021/12/18 09:55:58;;;;;;;10.93;3.17;;;;;;;;;;6208344;23;20013;-83
2021/12/18 09:58:24;;;;;;;10.68;3.22;;;;;;;;;;6208222;23;20504;-83
2021/12/18 10:00:50;;;;;;;10.82;3.60;;;;;;;;;;6208266;23;20013;-83
2021/12/18 10:03:16;;;;;;;12.85;4.20;;;;;;;;;;6207993;23;20279;-82
2021/12/18 10:05:42;;;;;;;11.48;3.75;;;;;;;;;;6208318;23;20051;-84
2021/12/18 10:08:12;;;;;;;9.88;4.13;;;;;;;;;;6208243;23;20008;-83
2021/12/18 10:10:39;;;;;;;13.60;3.75;;;;;;;;;;6206423;23;20450;-85
2021/12/18 10:13:07;;;;;;;13.38;3.58;;;;;;;;;;6208581;23;20462;-85
2021/12/18 10:15:34;;;;;;;10.52;3.60;;;;;;;;;;6183524;23;20017;-84
2021/12/18 10:18:10;;;;;;;12.93;4.40;;;;;;;;;;6208642;23;20067;-83
2021/12/18 10:20:37;;;;;;;10.70;4.10;;;;;;;;;;6207854;23;20342;-84
2021/12/18 10:23:05;;;;;;;13.13;4.78;;;;;;;;;;6208464;23;20043;-85
2021/12/18 10:25:39;;;;;;;13.70;4.70;;;;;;;;;;6208136;23;20016;-84
2021/12/18 10:28:09;;;;;;;13.90;5.10;;;;;;;;;;6208331;23;20013;-86
2021/12/18 10:30:35;;;;;;;13.20;5.10;;;;;;;;;;6208162;23;20012;-85
2021/12/18 10:33:05;;;;;;;14.02;5.03;;;;;;;;;;6208089;23;20016;-87
2021/12/18 10:35:46;;;;;;;12.85;5.43;;;;;;;;;;6206036;23;20481;-84
2021/12/18 10:38:32;;;;;;;11.48;5.53;;;;;;;;;;6181313;23;20017;-85
2021/12/18 10:40:58;;;;;;;14.70;5.25;;;;;;;;;;6187622;23;20012;-86
2021/12/18 10:43:24;;;;;;;15.70;5.75;;;;;;;;;;6207940;23;20366;-86
2021/12/18 10:45:50;;;;;;;12.52;5.68;;;;;;;;;;6208344;23;20064;-86
2021/12/18 10:48:17;;;;;;;15.55;6.00;;;;;;;;;;6208176;23;20481;-86
2021/12/18 10:50:46;;;;;;;13.30;5.82;;;;;;;;;;6208919;23;20012;-84
2021/12/18 10:53:14;;;;;;;15.55;5.47;;;;;;;;;;6209298;23;20012;-85
2021/12/18 10:55:44;;;;;;;14.23;5.65;;;;;;;;;;6183875;23;20383;-87
2021/12/18 10:58:12;;;;;;;11.50;4.88;;;;;;;;;;6208743;23;20359;-86
2021/12/18 11:00:40;;;;;;;12.45;4.18;;;;;;;;;;6209210;23;20020;-87
2021/12/18 11:03:13;;;;;;;15.27;4.72;;;;;;;;;;6208436;23;20111;-86
2021/12/18 11:05:39;;;;;;;12.23;5.50;;;;;;;;;;6208914;23;20020;-86
2021/12/18 11:08:09;;;;;;;11.85;4.45;;;;;;;;;;6184098;23;20009;-86
2021/12/18 11:10:55;;;;;;;10.75;4.68;;;;;;;;;;6208973;23;20019;-85
2021/12/18 11:13:45;;;;;;;11.63;4.88;;;;;;;;;;6208982;23;20012;-86
2021/12/18 11:16:11;;;;;;;10.13;4.10;;;;;;;;;;6208984;23;20017;-88
2021/12/18 11:18:37;;;;;;;16.80;4.82;;;;;;;;;;6183670;23;20099;-87
2021/12/18 11:21:03;;;;;;;11.70;4.50;;;;;;;;;;6208052;23;20017;-87
2021/12/18 11:23:37;;;;;;;14.50;4.20;;;;;;;;;;6208593;23;20013;-87
2021/12/18 11:26:03;;;;;;;;;;;;;;;;;;6208357;23;20088;-87
2021/12/18 11:28:30;;;;;;;14.95;4.55;;;;;;;;;;6207202;23;19943;-84
2021/12/18 11:30:56;;;;;;;14.63;4.80;;;;;;;;;;6207588;23;20276;-85
2021/12/18 11:33:22;;;;;;;8.75;4.32;;;;;;;;;;6208639;23;20017;-87
2021/12/18 11:35:48;;;;;;;10.32;3.35;;;;;;;;;;6209768;23;20093;-86
2021/12/18 11:38:16;;;;;;;10.70;3.75;;;;;;;;;;6208136;23;20023;-86
2021/12/18 11:40:42;;;;;;;9.27;3.47;;;;;;;;;;6182978;23;20091;-86
2021/12/18 11:43:28;;;;;;;9.88;3.40;;;;;;;;;;6207730;23;20020;-84
2021/12/18 11:45:54;;;;;;;12.77;3.63;;;;;;;;;;6207559;23;20518;-85
2021/12/18 11:48:20;;;;;;;8.98;3.40;;;;;;;;;;6207969;23;20044;-86
2021/12/18 11:50:48;;;;;;;10.00;2.97;;;;;;;;;;6207984;23;20488;-85
2021/12/18 11:53:18;;;;;;;9.57;2.33;;;;;;;;;;6208063;23;20012;-86
2021/12/18 11:55:50;;;;;;;7.68;2.63;;;;;;;;;;6207085;23;20402;-85
2021/12/18 11:58:16;;;;;;;9.60;2.63;;;;;;;;;;6207583;23;20027;-86
2021/12/18 12:00:43;;;;;;;8.50;2.97;;;;;;;;;;6207862;23;20350;-86
2021/12/18 12:03:10;;;;;;;7.80;2.80;;;;;;;;;;6208153;23;20016;-87
2021/12/18 12:05:36;;;;;;;8.52;2.92;;;;;;;;;;6207884;23;20017;-87
2021/12/18 12:08:21;;;;;;;11.65;4.18;;;;;;;;;;6207886;23;20063;-87
2021/12/18 12:11:05;;;;;;;8.23;3.50;;;;;;;;;;6206916;23;20017;-87
2021/12/18 12:13:50;;;;;;;6.88;3.15;;;;;;;;;;6208356;23;20468;-87
2021/12/18 12:16:16;;;;;;;8.13;3.50;;;;;;;;;;6183157;23;20092;-88
2021/12/18 12:19:02;;;;;;;11.82;3.38;;;;;;;;;;6208576;23;20016;-88
2021/12/18 12:21:41;;;;;;;8.75;3.85;;;;;;;;;;6207772;23;20024;-89
2021/12/18 12:24:08;;;;;;;11.65;3.75;;;;;;;;;;6208607;23;20035;-89
2021/12/18 12:26:34;;;;;;;11.60;3.80;;;;;;;;;;6207557;23;20016;-88
2021/12/18 12:29:00;;;;;;;13.55;3.85;;;;;;;;;;6207356;23;20020;-88
2021/12/18 12:31:27;;;;;;;8.73;3.53;;;;;;;;;;6208260;23;20520;-87
2021/12/18 12:34:13;;;;;;;10.88;3.53;;;;;;;;;;6209389;23;20355;-86
2021/12/18 12:36:45;;;;;;;8.93;3.00;;;;;;;;;;6210007;23;20076;-88
2021/12/18 12:39:11;;;;;;;11.60;3.83;;;;;;;;;;6185408;23;20071;-89
2021/12/18 12:41:42;;;;;;;14.05;3.80;;;;;;;;;;6210131;23;20020;-88
2021/12/18 12:44:31;;;;;;;12.27;3.85;;;;;;;;;;6212956;23;20068;-88
2021/12/18 12:47:14;;;;;;;10.05;3.38;;;;;;;;;;6209648;23;20347;-88
2021/12/18 12:49:40;;;;;;;11.98;3.10;;;;;;;;;;6209679;23;20275;-88
2021/12/18 12:52:08;;;;;;;10.90;3.50;;;;;;;;;;6208364;23;20523;-88
2021/12/18 12:54:53;;;;;;;10.30;3.17;;;;;;;;;;6209595;23;20056;-88
2021/12/18 12:57:19;;;;;;;;;;;;;;;;;;6209550;23;20525;-88
2021/12/18 12:59:45;;;;;;;9.68;3.20;;;;;;;;;;6208991;23;19918;-88
2021/12/18 13:02:11;;;;;;;9.95;2.97;;;;;;;;;;6184503;23;20393;-87
2021/12/18 13:04:37;;;;;;;11.25;3.30;;;;;;;;;;6184729;23;20400;-88
2021/12/18 13:07:07;;;;;;;11.18;3.97;;;;;;;;;;6209479;23;20051;-88
2021/12/18 13:09:34;;;;;;;12.27;4.28;;;;;;;;;;6184554;23;20016;-85
2021/12/18 13:12:04;;;;;;;9.65;3.45;;;;;;;;;;6209588;23;20016;-86
2021/12/18 13:14:37;;;;;;;10.52;3.53;;;;;;;;;;6209940;23;20032;-88
2021/12/18 13:17:16;;;;;;;12.88;3.40;;;;;;;;;;6209431;23;20055;-88
2021/12/18 13:19:52;;;;;;;12.00;3.63;;;;;;;;;;6209849;23;20394;-88
2021/12/18 13:22:18;;;;;;;9.15;4.43;;;;;;;;;;6184621;23;20016;-85
2021/12/18 13:24:43;;;;;;;10.30;3.45;;;;;;;;;;6184554;23;20017;-88
2021/12/18 13:27:10;;;;;;;12.57;4.50;;;;;;;;;;6209482;23;20398;-86
2021/12/18 13:29:36;;;;;;;10.07;3.67;;;;;;;;;;6211221;23;20443;-88
2021/12/18 13:32:04;;;;;;;12.68;3.63;;;;;;;;;;6184557;23;20005;-90
2021/12/18 13:34:32;;;;;;;10.98;3.55;;;;;;;;;;6209649;23;20019;-84
2021/12/18 13:36:58;;;;;;;9.38;3.13;;;;;;;;;;6209098;23;20052;-86
2021/12/18 13:39:29;;;;;;;11.65;3.40;;;;;;;;;;6209057;23;20028;-87
2021/12/18 13:41:57;;;;;;;11.50;3.63;;;;;;;;;;6208948;23;20016;-86
2021/12/18 13:44:23;;;;;;;12.88;3.40;;;;;;;;;;6209119;23;20020;-88
2021/12/18 13:46:49;;;;;;;12.93;3.42;;;;;;;;;;6209262;23;20021;-87
2021/12/18 13:49:15;;;;;;;11.18;3.40;;;;;;;;;;6209841;23;20017;-87
2021/12/18 13:51:41;;;;;;;10.60;3.97;;;;;;;;;;6209669;23;20016;-88
2021/12/18 13:54:07;;;;;;;11.70;3.90;;;;;;;;;;6209159;23;20020;-87
2021/12/18 13:56:38;;;;;;;10.10;3.80;;;;;;;;;;6209365;23;20456;-88
2021/12/18 13:59:17;;;;;;;12.88;4.10;;;;;;;;;;6209222;23;20016;-87
2021/12/18 14:01:44;;;;;;;8.60;4.80;;;;;;;;;;6209450;23;20017;-86
2021/12/18 14:04:17;;;;;;;11.55;4.18;;;;;;;;;;6184595;23;20059;-88
2021/12/18 14:06:44;;;;;;;11.02;3.80;;;;;;;;;;6209519;23;20461;-88
2021/12/18 14:09:16;;;;;;;11.35;4.15;;;;;;;;;;6209254;23;20070;-88
2021/12/18 14:11:53;;;;;;;11.18;3.70;;;;;;;;;;6207779;23;20013;-85
2021/12/18 14:14:31;;;;;;;11.88;3.70;;;;;;;;;;6209574;23;20524;-88
2021/12/18 14:16:58;;;;;;;10.23;3.05;;;;;;;;;;6210473;23;20054;-89
2021/12/18 14:19:31;;;;;;;8.32;3.42;;;;;;;;;;6209501;23;20091;-86
2021/12/18 14:21:58;;;;;;;9.82;3.42;;;;;;;;;;6209331;23;20016;-89
2021/12/18 14:24:24;;;;;;;11.88;3.13;;;;;;;;;;6208902;23;20044;-88
2021/12/18 14:26:54;;;;;;;17.73;3.50;;;;;;;;;;6208757;23;20059;-87
2021/12/18 14:29:20;;;;;;;11.77;3.63;;;;;;;;;;6209874;23;20493;-89
2021/12/18 14:31:56;;;;;;;8.18;3.53;;;;;;;;;;6210247;23;20087;-87
2021/12/18 14:34:27;;;;;;;11.20;3.13;;;;;;;;;;6209216;23;20350;-88
2021/12/18 14:36:58;;;;;;;11.73;3.35;;;;;;;;;;6209429;23;20023;-90
2021/12/18 14:39:24;;;;;;;10.38;3.30;;;;;;;;;;6210018;23;20020;-89
2021/12/18 14:42:12;;;;;;;7.93;3.33;;;;;;;;;;6209754;23;20415;-88
2021/12/18 14:44:55;;;;;;;11.40;3.15;;;;;;;;;;6164955;23;20229;-88
2021/12/18 14:47:21;;;;;;;11.02;2.90;;;;;;;;;;6209713;23;20034;-86
2021/12/18 14:49:56;;;;;;;11.18;3.72;;;;;;;;;;6209919;23;20040;-88
2021/12/18 14:52:22;;;;;;;15.52;3.70;;;;;;;;;;6185576;23;20351;-89
2021/12/18 14:54:50;;;;;;;10.82;3.60;;;;;;;;;;6209259;23;20012;-88
2021/12/18 14:57:21;;;;;;;9.20;3.10;;;;;;;;;;6209555;23;20016;-90
2021/12/18 14:59:47;;;;;;;8.73;3.13;;;;;;;;;;6209286;23;20023;-87
2021/12/18 15:02:13;;;;;;;11.25;3.47;;;;;;;;;;6209650;23;20016;-90
2021/12/18 15:04:39;;;;;;;9.77;3.50;;;;;;;;;;6210089;23;20339;-89
2021/12/18 15:07:10;;;;;;;8.18;3.05;;;;;;;;;;6209363;23;20095;-89
2021/12/18 15:09:38;;;;;;;7.80;3.50;;;;;;;;;;6210226;23;20604;-90
2021/12/18 15:12:04;;;;;;;7.30;3.00;;;;;;;;;;6209513;23;20009;-90
2021/12/18 15:14:36;;;;;;;8.43;3.92;;;;;;;;;;6209722;23;20346;-89
2021/12/18 15:17:06;;;;;;;9.48;3.15;;;;;;;;;;6211230;23;20021;-91
2021/12/18 15:19:40;;;;;;;9.25;3.28;;;;;;;;;;6211154;23;20323;-91
2021/12/18 15:22:11;;;;;;;8.55;3.33;;;;;;;;;;6211266;23;20476;-91
2021/12/18 15:24:37;;;;;;;10.77;3.42;;;;;;;;;;6212831;23;20017;-91
2021/12/18 15:27:04;;;;;;;13.52;3.67;;;;;;;;;;6185249;23;20453;-90
2021/12/18 15:29:38;;;;;;;13.00;4.72;;;;;;;;;;6209788;23;20020;-89
2021/12/18 15:32:05;;;;;;;10.32;3.90;;;;;;;;;;6209583;23;20017;-92
2021/12/18 15:34:31;;;;;;;11.45;4.15;;;;;;;;;;6183986;23;20350;-91
2021/12/18 15:36:59;;;;;;;13.73;3.95;;;;;;;;;;6209914;23;20029;-91
2021/12/18 15:39:25;;;;;;;11.65;4.10;;;;;;;;;;6212483;23;20020;-90
2021/12/18 15:41:52;;;;;;;9.63;4.40;;;;;;;;;;6212380;23;20393;-91
2021/12/18 15:44:18;;;;;;;10.45;3.95;;;;;;;;;;6209774;23;20017;-89
2021/12/18 15:46:45;;;;;;;12.60;4.40;;;;;;;;;;6210537;23;20458;-92
2021/12/18 15:49:11;;;;;;;10.73;4.07;;;;;;;;;;6210976;23;20016;-89
2021/12/18 15:51:37;;;;;;;14.15;3.90;;;;;;;;;;6185515;23;20017;-90